Rawlins, WY

2:59 PM MDT on July 28, 2014 (GMT -0600)
Downtown (KWYSINCL1) Elev 6611 ft | 41.78 °N, 107.12 °W | Change Station

Current weather conditions updated 2 seconds ago

Clear
Clear
91.5 °F
Feels Like 87 °F
N
8.2
Wind Variable Wind from NNE
Gusts 18.6 mph

Today is forecast to be nearly the same temperature as yesterday.

Today
High -- | Low -- °F
--% Chance of Precip.
Yesterday
High -- | Low -- °F
Precip. -- in
5:59 AM 8:31 PM
Waxing Crescent, 3% visible
Pressure 30.05 in
Visibility 10.0 miles
Clouds Clear
Heat Index 87 °F
Dew Point 25 °F
Humidity 9%
Rainfall 0.00 in
Snow Depth Not available.
UV 12 out of 12
Pollen 6.00 out of 12
Air Quality Not available.
Flu Activity Not available.
METAR KRWL 281953Z AUTO VRB06KT 10SM CLR 30/M03 A3038 RMK AO2 SLP176 T03001028

More Conditions Fewer Conditions

Pressure 30.05 in
Visibility 10.0 miles
Clouds Clear
Heat Index 87 °F
Dew Point 25 °F
Humidity 9%
Rainfall 0.00 in
Snow Depth Not available.
UV 12 out of 12
Pollen 6.00 out of 12
Air Quality Not available.
Flu Activity Not available.
METAR KRWL 281953Z AUTO VRB06KT 10SM CLR 30/M03 A3038 RMK AO2 SLP176 T03001028

More Conditions Fewer Conditions

10-Day Weather Forecast

Almanac

Astronomy

Jul. 28, 2014 Rise Set
Actual Time 5:59 AM MDT 8:31 PM MDT
Civil Twilight 5:27 AM MDT 9:02 PM MDT
Nautical Twilight 4:47 AM MDT 9:42 PM MDT
Astronomical Twilight 4:02 AM MDT 10:26 PM MDT
Moon 7:45 AM MDT 9:11 PM MDT
Length of Visible Light 15h 35m
Length of Day
14h 32m
Tomorrow will be 2m 1s shorter.
Waxing Crescent, 3% of the Moon is Illuminated
Today
Waxing Crescent
Aug 3
First Quarter
Aug 10
Full
Aug 17
Last Quarter
Aug 25
New

Today's Extremes

State Highs State Lows

Community

WunderPhotos

Upload Photos

1,738,488 photos uploaded!

Nearby

Snow Depth

Station Depth Elevation
Gunsight Pass 1 in 9820 ft
Loomis Park 0 in 8240 ft
Blind Bull Summit 0 in 8900 ft
Salt River Summit 0 in 7600 ft
Willow Creek 0 in 8450 ft

Earthquake Activity

City Distance Mag. Time & Date
No recent earthquake activity has been reported nearby.
Minimum magnitude displayed is 2.5.

Coastal Water Temperatures

Place Temperature
No Stations Reporting

Nearby Weather Stations

Station Location Temp. Heat Index Dew Point Humidity Wind Precip. Elev Updated Type
Rawlins, WY 88.9 °F 86 °F - - NE  at  3.4 mph 0.00 in / hr 7487 ft 2:59 PM MDT Rapid Fire
Downtown, Sinclair, Wy 91.5 °F 87 °F 25 °F 9% NNE  at  8.2 mph 0.00 in / hr 6611 ft 2:59 PM MDT Rapid Fire
MesoWest HADSL1 , Rawlins, WY 83 °F 81 °F - - North  at  - 0.00 in / hr 6860 ft 2:00 PM MDT MADIS
HADS NORTH PLATTE RIVER ABOVE SEMINOE WY, Sinclair, WY 84 °F 81 °F - - North  at  - 0.00 in / hr 6399 ft 1:45 PM MDT MADIS

Show More Stations Show Fewer Stations